Time;durP1;ratioP1;P1;durP2;ratioP2;P2;SDS_P1;SDS_P2;PMS_P1;PMS_P2;Temp;Humidity;BMP_temperature;BMP_pressure;BME280_temperature;BME280_humidity;BME280_pressure;Samples;Min_cycle;Max_cycle;Signal;HPM_P1;HPM_P2
2022/12/11 06:14:12;;;;;;;23.10;21.00;;;0.10;99.90;;;;;;6183420;23;20946;-71
2022/12/11 06:16:39;;;;;;;23.03;20.93;;;0.10;99.90;;;;;;6211525;23;20435;-73
2022/12/11 06:19:06;;;;;;;24.03;21.63;;;0.10;99.90;;;;;;6211220;23;20409;-74
2022/12/11 06:21:33;;;;;;;24.90;22.57;;;0.10;99.90;;;;;;6210365;23;20954;-73
2022/12/11 06:24:04;;;;;;;26.30;23.80;;;0.00;99.90;;;;;;6210782;23;20411;-73
2022/12/11 06:26:32;;;;;;;25.20;22.90;;;0.00;99.90;;;;;;6210931;23;20929;-74
2022/12/11 06:28:59;;;;;;;25.40;23.10;;;-0.10;99.90;;;;;;6212950;23;20508;-74
2022/12/11 06:31:27;;;;;;;25.33;23.10;;;-0.30;99.90;;;;;;6213153;23;20410;-73
2022/12/11 06:33:54;;;;;;;24.97;22.80;;;-0.40;99.90;;;;;;6213249;23;20412;-73
2022/12/11 06:36:23;;;;;;;24.73;22.47;;;-0.60;99.90;;;;;;6212698;23;20409;-74
2022/12/11 06:38:50;;;;;;;27.23;24.70;;;-0.80;99.90;;;;;;6212638;23;20753;-74
2022/12/11 06:41:17;;;;;;;25.57;23.27;;;-1.00;99.90;;;;;;6212230;23;20441;-74
2022/12/11 06:43:44;;;;;;;24.40;22.20;;;-1.10;99.90;;;;;;6212808;23;20407;-73
2022/12/11 06:46:13;;;;;;;26.83;24.20;;;-1.20;99.90;;;;;;6212736;23;20404;-73
2022/12/11 06:48:42;;;;;;;26.23;23.97;;;-1.10;99.90;;;;;;6212756;23;20406;-76
2022/12/11 06:51:10;;;;;;;28.93;26.33;;;-1.20;99.90;;;;;;6212684;23;20407;-76
2022/12/11 06:53:37;;;;;;;25.43;23.33;;;-1.20;99.90;;;;;;6213601;23;20401;-77
2022/12/11 06:56:05;;;;;;;27.23;24.83;;;-1.30;99.90;;;;;;6213434;23;20408;-74
2022/12/11 06:58:34;;;;;;;27.00;24.50;;;-1.20;99.90;;;;;;6213443;23;20425;-77
2022/12/11 07:01:01;;;;;;;26.00;23.83;;;-1.20;99.90;;;;;;6212323;23;20450;-77
2022/12/11 07:03:27;;;;;;;25.07;22.63;;;-1.20;99.90;;;;;;6212921;23;20411;-76
2022/12/11 07:06:00;;;;;;;27.10;24.50;;;-1.10;99.90;;;;;;6212819;23;20410;-76
2022/12/11 07:08:27;;;;;;;29.53;26.80;;;-0.90;99.90;;;;;;6212686;23;20396;-78
2022/12/11 07:10:54;;;;;;;28.00;25.10;;;-0.80;99.90;;;;;;6213133;23;20405;-77
2022/12/11 07:13:21;;;;;;;27.83;25.10;;;-0.80;99.90;;;;;;6230535;23;20424;-77
2022/12/11 07:15:48;;;;;;;30.40;25.60;;;-0.60;99.90;;;;;;6226293;23;20410;-77
2022/12/11 07:18:14;;;;;;;26.50;23.87;;;-0.40;99.90;;;;;;6223711;23;20409;-78
2022/12/11 07:20:41;;;;;;;27.87;25.23;;;-0.20;99.90;;;;;;6224358;23;20413;-77
2022/12/11 07:23:09;;;;;;;28.13;25.20;;;-0.20;99.90;;;;;;6215419;23;20899;-78
2022/12/11 07:25:37;;;;;;;25.40;23.10;;;-0.10;99.90;;;;;;6212425;23;20889;-77
2022/12/11 07:28:04;;;;;;;25.77;23.37;;;-0.10;99.90;;;;;;6211916;23;20955;-77
2022/12/11 07:30:30;;;;;;;25.63;23.33;;;0.00;99.90;;;;;;6212249;23;20415;-78
2022/12/11 07:32:57;;;;;;;27.83;25.20;;;0.20;99.90;;;;;;6212504;23;20724;-77
2022/12/11 07:35:24;;;;;;;26.23;23.93;;;0.40;99.90;;;;;;6212131;23;20884;-78
2022/12/11 07:37:50;;;;;;;26.20;23.70;;;0.70;99.90;;;;;;6211815;23;20490;-76
2022/12/11 07:40:19;;;;;;;27.17;24.60;;;1.00;99.90;;;;;;6211999;23;20404;-78
2022/12/11 07:42:45;;;;;;;26.00;23.70;;;1.50;99.90;;;;;;6212070;23;20438;-76
2022/12/11 07:45:12;;;;;;;23.87;21.40;;;1.90;99.90;;;;;;6212450;23;20412;-78
2022/12/11 07:47:39;;;;;;;24.47;22.37;;;2.10;99.90;;;;;;6212215;23;20400;-76
2022/12/11 07:50:06;;;;;;;22.07;20.13;;;2.20;99.90;;;;;;6212118;23;20684;-76
2022/12/11 07:52:33;;;;;;;23.67;21.37;;;2.00;99.90;;;;;;6212023;23;20665;-75
2022/12/11 07:55:00;;;;;;;24.80;22.30;;;2.00;99.90;;;;;;6212264;23;20405;-75
2022/12/11 07:57:29;;;;;;;24.27;22.13;;;2.00;99.90;;;;;;6212196;23;20404;-76
2022/12/11 07:59:56;;;;;;;23.77;21.53;;;1.90;99.90;;;;;;6212225;23;20409;-75
2022/12/11 08:02:23;;;;;;;23.47;21.37;;;1.70;99.90;;;;;;6211525;23;21002;-77
2022/12/11 08:04:50;;;;;;;23.93;21.73;;;1.70;99.90;;;;;;6212023;23;20673;-76
2022/12/11 08:07:16;;;;;;;24.67;22.27;;;1.70;99.90;;;;;;6211345;23;20901;-76
2022/12/11 08:09:43;;;;;;;23.43;21.33;;;1.80;99.90;;;;;;6211737;23;20461;-76
2022/12/11 08:12:10;;;;;;;24.30;22.00;;;1.90;99.90;;;;;;6211797;23;20908;-76
2022/12/11 08:14:38;;;;;;;24.50;22.40;;;2.10;99.90;;;;;;6211386;23;20462;-76
2022/12/11 08:17:05;;;;;;;22.63;20.60;;;2.20;99.90;;;;;;6211992;23;20405;-75
2022/12/11 08:19:32;;;;;;;22.87;20.83;;;2.30;99.90;;;;;;6211907;23;20462;-76
2022/12/11 08:21:59;;;;;;;23.07;20.93;;;2.30;99.90;;;;;;6211561;23;20448;-74
2022/12/11 08:24:26;;;;;;;24.90;22.60;;;2.50;99.90;;;;;;6211606;23;20902;-75
2022/12/11 08:26:53;;;;;;;24.90;22.30;;;2.70;99.90;;;;;;6212205;23;20489;-76
2022/12/11 08:29:20;;;;;;;26.93;24.17;;;2.80;99.90;;;;;;6212044;23;20567;-77
2022/12/11 08:31:48;;;;;;;31.53;25.83;;;2.80;99.90;;;;;;6213147;23;20471;-76
2022/12/11 08:34:15;;;;;;;25.90;23.53;;;3.00;99.90;;;;;;6212267;23;20730;-80
2022/12/11 08:36:43;;;;;;;27.47;24.77;;;3.50;99.90;;;;;;6212258;23;20415;-77
2022/12/11 08:39:09;;;;;;;26.07;23.77;;;4.00;99.90;;;;;;6211713;23;20466;-76
2022/12/11 08:41:36;;;;;;;25.60;23.20;;;4.30;99.90;;;;;;6211283;23;20443;-76
2022/12/11 08:44:03;;;;;;;24.60;22.30;;;4.40;99.90;;;;;;6211588;23;20412;-75
2022/12/11 08:46:31;;;;;;;26.23;22.73;;;4.80;99.90;;;;;;6211393;23;20404;-76
2022/12/11 08:49:00;;;;;;;25.00;22.67;;;4.70;99.90;;;;;;6211928;23;20405;-75
2022/12/11 08:51:29;;;;;;;27.70;25.07;;;4.10;99.90;;;;;;6211619;23;20448;-75
2022/12/11 08:53:56;;;;;;;27.60;24.93;;;3.90;99.90;;;;;;6211402;23;20423;-75
2022/12/11 08:56:24;;;;;;;27.50;24.63;;;3.30;99.90;;;;;;6211160;23;20419;-74
2022/12/11 08:58:51;;;;;;;28.73;25.83;;;2.90;99.90;;;;;;6211208;23;20418;-75
2022/12/11 09:01:21;;;;;;;26.30;23.70;;;2.90;99.90;;;;;;6211320;23;20884;-75
2022/12/11 09:03:48;;;;;;;26.77;24.27;;;2.60;99.90;;;;;;6210896;23;20543;-75
2022/12/11 09:06:18;;;;;;;28.13;25.40;;;2.60;99.90;;;;;;6210953;23;20466;-76
2022/12/11 09:08:47;;;;;;;28.90;26.17;;;2.60;99.90;;;;;;6211487;23;20848;-76
2022/12/11 09:11:16;;;;;;;27.63;25.10;;;2.70;99.90;;;;;;6211590;23;20426;-75
2022/12/11 09:13:43;;;;;;;28.27;25.57;;;2.60;99.90;;;;;;6211047;23;20439;-75
2022/12/11 09:16:13;;;;;;;29.07;26.47;;;2.50;99.90;;;;;;6211884;23;20710;-76
2022/12/11 09:18:40;;;;;;;28.07;25.30;;;2.30;99.90;;;;;;6212608;23;20406;-76
2022/12/11 09:21:09;;;;;;;29.43;26.53;;;2.20;99.90;;;;;;6210723;23;20888;-76
2022/12/11 09:23:38;;;;;;;30.33;27.10;;;2.20;99.90;;;;;;6211552;23;20730;-74
2022/12/11 09:26:05;;;;;;;29.47;26.73;;;2.20;99.90;;;;;;6210827;23;20414;-76
2022/12/11 09:28:33;;;;;;;27.67;25.17;;;2.10;99.90;;;;;;6211437;23;20509;-79
2022/12/11 09:31:01;;;;;;;31.57;28.40;;;2.00;99.90;;;;;;6211328;23;20763;-78
2022/12/11 09:33:27;;;;;;;30.97;27.63;;;1.80;99.90;;;;;;6212947;23;20401;-77
2022/12/11 09:35:58;;;;;;;29.40;26.70;;;1.70;99.90;;;;;;6212748;23;20923;-80
2022/12/11 09:38:25;;;;;;;30.70;27.80;;;1.70;99.90;;;;;;6218268;23;20397;-79
2022/12/11 09:40:53;;;;;;;30.40;27.30;;;1.80;99.90;;;;;;6221206;23;20410;-82
2022/12/11 09:43:36;;;;;;;31.83;28.53;;;1.80;99.90;;;;;;6213695;23;20626;-81
2022/12/11 09:46:06;;;;;;;30.50;27.57;;;1.60;99.90;;;;;;6215083;23;20395;-84
2022/12/11 09:48:34;;;;;;;32.27;28.87;;;1.60;99.90;;;;;;6213631;23;20387;-83
2022/12/11 09:51:05;;;;;;;28.83;25.87;;;1.40;99.90;;;;;;6212810;23;20494;-80
2022/12/11 09:53:35;;;;;;;31.10;28.13;;;1.40;99.90;;;;;;6220440;23;20470;-78
2022/12/11 09:56:13;;;;;;;33.47;29.60;;;1.30;99.90;;;;;;6216217;23;20423;-81
2022/12/11 09:58:50;;;;;;;27.33;24.90;;;1.30;99.90;;;;;;6218630;23;20388;-78
2022/12/11 10:01:22;;;;;;;30.47;27.20;;;1.40;99.90;;;;;;6217789;23;20389;-79
2022/12/11 10:04:15;;;;;;;29.50;26.70;;;1.40;99.90;;;;;;6219047;23;20579;-80
2022/12/11 10:06:48;;;;;;;31.83;28.83;;;1.50;99.90;;;;;;6214665;23;20400;-79
2022/12/11 10:09:26;;;;;;;31.50;28.50;;;1.50;99.90;;;;;;6213935;23;20397;-81
2022/12/11 10:12:14;;;;;;;29.07;26.27;;;1.40;99.90;;;;;;6214985;23;20432;-82
2022/12/11 10:14:53;;;;;;;28.87;26.00;;;1.40;99.90;;;;;;6214828;23;20471;-81
2022/12/11 10:17:22;;;;;;;30.97;27.90;;;1.40;99.90;;;;;;6215730;23;20394;-83
2022/12/11 10:19:49;;;;;;;30.47;27.27;;;1.50;99.90;;;;;;6215702;23;20405;-82
2022/12/11 10:22:21;;;;;;;30.87;27.83;;;1.50;99.90;;;;;;6215005;23;20452;-83
2022/12/11 10:24:55;;;;;;;29.90;27.10;;;1.60;99.90;;;;;;6215447;23;20396;-84
2022/12/11 10:27:25;;;;;;;29.23;26.23;;;1.70;99.90;;;;;;6223873;23;20386;-79
2022/12/11 10:30:01;;;;;;;28.23;25.63;;;1.60;99.90;;;;;;6215820;23;20394;-80
2022/12/11 10:32:36;;;;;;;30.57;27.60;;;1.50;99.90;;;;;;6214359;23;20386;-79
2022/12/11 10:35:06;;;;;;;29.47;26.53;;;1.50;99.90;;;;;;6213421;23;20394;-80
2022/12/11 10:37:32;;;;;;;27.20;24.60;;;1.60;99.90;;;;;;6212595;23;20422;-78
2022/12/11 10:39:59;;;;;;;28.07;25.27;;;1.60;99.90;;;;;;6212569;23;20401;-79
2022/12/11 10:42:27;;;;;;;26.97;24.27;;;1.50;99.90;;;;;;6213205;23;20765;-79
2022/12/11 10:44:59;;;;;;;26.40;23.80;;;1.70;99.90;;;;;;6212941;23;20407;-79
2022/12/11 10:47:26;;;;;;;27.87;25.17;;;1.90;99.90;;;;;;6212923;23;20491;-78
2022/12/11 10:49:55;;;;;;;26.47;23.93;;;2.00;99.90;;;;;;6213192;23;20400;-77
2022/12/11 10:52:24;;;;;;;27.90;25.10;;;2.10;99.90;;;;;;6212412;23;20923;-77
2022/12/11 10:54:58;;;;;;;26.23;23.67;;;2.10;99.90;;;;;;6212678;23;20896;-79
2022/12/11 10:57:30;;;;;;;24.33;22.03;;;2.30;99.90;;;;;;6213493;23;20380;-77
2022/12/11 10:59:57;;;;;;;26.80;24.30;;;2.30;99.90;;;;;;6212753;23;20390;-76
2022/12/11 11:02:27;;;;;;;26.90;24.20;;;2.20;99.90;;;;;;6213003;23;20758;-75
2022/12/11 11:04:55;;;;;;;24.97;22.40;;;2.30;99.90;;;;;;6213256;23;20403;-77
2022/12/11 11:07:23;;;;;;;27.57;25.07;;;2.10;99.90;;;;;;6212020;23;20738;-75
2022/12/11 11:09:53;;;;;;;28.03;25.07;;;2.00;99.90;;;;;;6212721;23;20500;-76
2022/12/11 11:12:23;;;;;;;27.47;24.53;;;2.00;99.90;;;;;;6212484;23;20479;-76
2022/12/11 11:15:01;;;;;;;27.50;24.57;;;2.10;99.90;;;;;;6212212;23;20443;-76
2022/12/11 11:17:31;;;;;;;28.93;26.10;;;2.00;99.90;;;;;;6213565;23;20760;-77
2022/12/11 11:20:04;;;;;;;24.50;22.07;;;2.10;99.90;;;;;;6213441;23;20413;-79
2022/12/11 11:22:32;;;;;;;24.50;22.10;;;2.20;99.90;;;;;;6213168;23;20425;-79
2022/12/11 11:24:59;;;;;;;25.30;22.60;;;2.40;99.90;;;;;;6213033;23;20889;-78
2022/12/11 11:27:34;;;;;;;24.77;22.33;;;2.60;99.90;;;;;;6213065;23;20414;-77
2022/12/11 11:30:07;;;;;;;23.97;21.63;;;2.50;99.90;;;;;;6212494;23;20390;-77
2022/12/11 11:32:38;;;;;;;25.50;22.70;;;2.40;99.90;;;;;;6212614;23;20434;-76
2022/12/11 11:35:20;;;;;;;26.03;23.47;;;2.60;99.90;;;;;;6212707;23;20462;-75
2022/12/11 11:37:56;;;;;;;26.17;23.77;;;2.80;99.90;;;;;;6212520;23;20403;-77
2022/12/11 11:40:27;;;;;;;26.57;24.17;;;2.90;99.90;;;;;;6212415;23;20402;-76
2022/12/11 11:43:03;;;;;;;25.63;23.10;;;3.00;99.90;;;;;;6212679;23;20479;-77
2022/12/11 11:45:37;;;;;;;25.47;23.07;;;3.20;99.90;;;;;;6212414;23;20396;-77
2022/12/11 11:48:25;;;;;;;25.80;23.30;;;3.20;99.90;;;;;;6212375;23;20418;-77
2022/12/11 11:50:53;;;;;;;24.07;21.60;;;3.50;99.90;;;;;;6211887;23;20403;-77
2022/12/11 11:53:26;;;;;;;25.37;23.17;;;3.60;99.90;;;;;;6212553;23;20408;-79
2022/12/11 11:56:02;;;;;;;26.37;23.63;;;3.60;99.90;;;;;;6212717;23;20945;-79
2022/12/11 11:58:38;;;;;;;25.87;23.37;;;3.30;99.90;;;;;;6213146;23;20415;-78
2022/12/11 12:01:13;;;;;;;25.17;22.83;;;3.00;99.90;;;;;;6212548;23;20392;-79
2022/12/11 12:03:40;;;;;;;23.70;21.37;;;3.10;99.90;;;;;;6212518;23;20424;-78
2022/12/11 12:06:14;;;;;;;24.20;21.60;;;3.20;99.90;;;;;;6212410;23;20432;-78
2022/12/11 12:08:46;;;;;;;24.83;22.53;;;3.30;99.90;;;;;;6212257;23;20869;-75
2022/12/11 12:11:24;;;;;;;24.00;21.70;;;3.30;99.90;;;;;;6211996;23;20400;-76
2022/12/11 12:14:01;;;;;;;24.63;22.27;;;3.30;99.90;;;;;;6211773;23;20471;-76
2022/12/11 12:16:39;;;;;;;22.97;20.87;;;3.40;99.90;;;;;;6212068;23;20728;-78
2022/12/11 12:19:15;;;;;;;24.57;22.37;;;3.80;99.90;;;;;;6211303;23;20411;-76
2022/12/11 12:21:47;;;;;;;23.00;20.80;;;3.90;99.90;;;;;;6212128;23;20389;-77
2022/12/11 12:24:24;;;;;;;24.57;22.40;;;3.70;99.90;;;;;;6211300;23;20451;-78
2022/12/11 12:26:55;;;;;;;24.73;22.27;;;3.60;99.90;;;;;;6211483;23;20395;-77
2022/12/11 12:29:33;;;;;;;24.50;22.20;;;3.70;99.90;;;;;;6211338;23;20392;-78
2022/12/11 12:32:09;;;;;;;24.17;21.57;;;3.80;99.90;;;;;;6211608;23;20392;-77
2022/12/11 12:34:47;;;;;;;23.97;21.80;;;3.60;99.90;;;;;;6211397;23;20392;-77
2022/12/11 12:37:22;;;;;;;24.73;22.43;;;3.50;99.90;;;;;;6211381;23;20406;-77
2022/12/11 12:39:56;;;;;;;24.53;22.30;;;3.60;99.90;;;;;;6210987;23;20391;-77
2022/12/11 12:42:33;;;;;;;22.63;20.33;;;3.60;99.90;;;;;;6211030;23;20919;-77
2022/12/11 12:45:08;;;;;;;24.70;22.30;;;3.50;99.90;;;;;;6211617;23;20393;-77
2022/12/11 12:47:37;;;;;;;23.57;21.13;;;3.50;99.90;;;;;;6211279;23;20458;-77
2022/12/11 12:50:10;;;;;;;23.67;21.60;;;3.60;99.90;;;;;;6211452;23;20408;-77
2022/12/11 12:52:40;;;;;;;22.57;20.60;;;3.80;99.90;;;;;;6210736;23;20385;-77
2022/12/11 12:55:22;;;;;;;25.40;23.00;;;3.90;99.90;;;;;;6210660;23;20943;-77
2022/12/11 12:57:52;;;;;;;24.07;21.77;;;4.00;99.90;;;;;;6211142;23;20400;-77
2022/12/11 13:00:32;;;;;;;22.73;20.60;;;3.90;99.90;;;;;;6211247;23;20504;-77
2022/12/11 13:03:03;;;;;;;23.90;21.40;;;3.90;99.90;;;;;;6211484;23;20435;-77
2022/12/11 13:05:33;;;;;;;25.03;22.77;;;3.80;99.90;;;;;;6211600;23;20381;-77
2022/12/11 13:08:02;;;;;;;24.17;21.90;;;3.80;99.90;;;;;;6211049;23;20492;-78
2022/12/11 13:10:32;;;;;;;26.87;22.77;;;3.60;99.90;;;;;;6211149;23;20405;-76
2022/12/11 13:12:59;;;;;;;23.43;21.20;;;3.50;99.90;;;;;;6210633;23;20737;-73
2022/12/11 13:15:39;;;;;;;28.03;25.20;;;3.40;99.90;;;;;;6211230;23;20411;-73
2022/12/11 13:18:32;;;;;;;25.80;23.20;;;3.40;99.90;;;;;;6210926;23;20397;-73
2022/12/11 13:20:59;;;;;;;26.00;22.50;;;3.40;99.90;;;;;;6210626;23;20441;-73
2022/12/11 13:23:28;;;;;;;24.13;21.70;;;3.20;99.90;;;;;;6211040;23;20444;-73
2022/12/11 13:25:57;;;;;;;21.57;19.40;;;3.10;99.90;;;;;;6211288;23;20419;-73
2022/12/11 13:28:28;;;;;;;23.30;21.20;;;3.10;99.90;;;;;;6210824;23;20426;-73
2022/12/11 13:31:33;;;;;;;23.33;21.13;;;3.10;99.90;;;;;;6210593;23;20894;-73
2022/12/11 13:34:15;;;;;;;23.90;21.37;;;3.20;99.90;;;;;;6192230;23;20450;-72
2022/12/11 13:36:46;;;;;;;24.37;21.97;;;3.10;99.90;;;;;;6210563;23;20394;-72
2022/12/11 13:39:17;;;;;;;25.17;22.43;;;3.30;99.90;;;;;;6210965;23;20390;-72
2022/12/11 13:41:47;;;;;;;26.20;23.83;;;3.20;99.90;;;;;;6210690;23;20391;-72
2022/12/11 13:44:19;;;;;;;23.50;21.50;;;2.90;99.90;;;;;;6210625;23;20442;-73
2022/12/11 13:46:46;;;;;;;27.13;23.30;;;2.80;99.90;;;;;;6210274;23;20482;-73
2022/12/11 13:49:22;;;;;;;25.20;22.70;;;2.90;99.90;;;;;;6210737;23;20439;-72
2022/12/11 13:51:55;;;;;;;26.20;23.40;;;2.90;99.90;;;;;;6210530;23;20396;-72
2022/12/11 13:54:22;;;;;;;26.40;23.67;;;2.80;99.90;;;;;;6210106;23;20737;-73
2022/12/11 13:56:57;;;;;;;28.40;24.93;;;2.90;99.90;;;;;;6210302;23;20411;-72
2022/12/11 13:59:27;;;;;;;26.00;23.40;;;2.90;99.90;;;;;;6210595;23;20722;-74
2022/12/11 14:01:58;;;;;;;28.07;24.93;;;2.90;99.90;;;;;;6210311;23;20422;-73
2022/12/11 14:04:27;;;;;;;29.73;26.97;;;2.80;99.90;;;;;;6210852;23;20438;-73
2022/12/11 14:06:56;;;;;;;29.43;26.33;;;2.70;99.90;;;;;;6210771;23;20415;-73
2022/12/11 14:09:26;;;;;;;30.60;27.40;;;2.60;99.90;;;;;;6210576;23;20923;-72
2022/12/11 14:11:55;;;;;;;28.97;26.10;;;2.50;99.90;;;;;;6210374;23;20427;-73
2022/12/11 14:14:27;;;;;;;28.70;25.60;;;2.40;99.90;;;;;;6210026;23;20455;-72
2022/12/11 14:16:54;;;;;;;30.00;26.60;;;2.40;99.90;;;;;;6210875;23;20395;-73
2022/12/11 14:19:23;;;;;;;27.30;24.50;;;2.40;99.90;;;;;;6210484;23;20409;-73
2022/12/11 14:22:03;;;;;;;28.10;25.10;;;2.30;99.90;;;;;;6210497;23;20744;-73
2022/12/11 14:24:31;;;;;;;29.53;26.43;;;2.20;99.90;;;;;;6210099;23;20430;-72
2022/12/11 14:26:58;;;;;;;29.90;26.77;;;2.10;99.90;;;;;;6210145;23;20404;-72
2022/12/11 14:29:28;;;;;;;30.33;27.03;;;2.00;99.90;;;;;;6210674;23;20409;-74
2022/12/11 14:31:59;;;;;;;27.67;24.87;;;1.80;99.90;;;;;;6211266;23;20459;-75
2022/12/11 14:34:30;;;;;;;33.40;27.00;;;1.60;99.90;;;;;;6211166;23;20468;-74
2022/12/11 14:36:59;;;;;;;33.13;28.10;;;1.50;99.90;;;;;;6210654;23;20891;-73
2022/12/11 14:39:32;;;;;;;31.93;28.43;;;1.30;99.90;;;;;;6210799;23;20411;-73
2022/12/11 14:42:03;;;;;;;32.13;28.67;;;1.30;99.90;;;;;;6210139;23;20397;-73
2022/12/11 14:44:35;;;;;;;32.97;27.50;;;1.20;99.90;;;;;;6210225;23;20421;-72
2022/12/11 14:47:05;;;;;;;35.90;30.43;;;1.20;99.90;;;;;;6210084;23;20385;-73
2022/12/11 14:49:42;;;;;;;35.23;29.67;;;1.10;99.90;;;;;;6212029;23;20874;-74
2022/12/11 14:52:16;;;;;;;37.23;33.17;;;1.10;99.90;;;;;;6212291;23;20708;-74
2022/12/11 14:54:50;;;;;;;38.70;29.13;;;1.00;99.90;;;;;;6212311;23;20380;-73
2022/12/11 14:57:20;;;;;;;36.07;28.53;;;1.00;99.90;;;;;;6211998;23;20728;-73
2022/12/11 14:59:49;;;;;;;35.17;31.47;;;0.90;99.90;;;;;;6212036;23;20547;-72
2022/12/11 15:02:25;;;;;;;29.57;26.43;;;0.90;99.90;;;;;;6212153;23;20413;-73
2022/12/11 15:05:14;;;;;;;38.93;31.47;;;1.00;99.90;;;;;;6211914;23;20438;-74
2022/12/11 15:07:42;;;;;;;35.47;29.50;;;1.00;99.90;;;;;;6212506;23;20414;-73
2022/12/11 15:10:23;;;;;;;35.70;29.27;;;1.00;99.90;;;;;;6212003;23;20408;-73
2022/12/11 15:12:50;;;;;;;36.00;30.13;;;1.10;99.90;;;;;;6211573;23;20955;-73
2022/12/11 15:15:18;;;;;;;37.20;30.23;;;1.10;99.90;;;;;;6212194;23;20389;-72
2022/12/11 15:17:46;;;;;;;34.83;28.97;;;1.20;99.90;;;;;;6212560;23;20414;-73
2022/12/11 15:20:23;;;;;;;40.00;30.77;;;1.30;99.90;;;;;;6212901;23;20733;-72
2022/12/11 15:22:50;;;;;;;36.70;29.83;;;1.30;99.90;;;;;;6212288;23;20393;-73
2022/12/11 15:25:23;;;;;;;37.00;29.00;;;1.40;99.90;;;;;;6212246;23;20405;-72
2022/12/11 15:27:52;;;;;;;35.80;30.17;;;1.40;99.90;;;;;;6212400;23;20389;-73
2022/12/11 15:30:34;;;;;;;33.27;29.00;;;1.40;99.90;;;;;;6212088;23;20909;-73
2022/12/11 15:33:17;;;;;;;32.07;27.70;;;1.40;99.90;;;;;;6212441;23;20390;-73
2022/12/11 15:35:54;;;;;;;36.40;29.80;;;1.40;99.90;;;;;;6212186;23;20390;-73
2022/12/11 15:38:28;;;;;;;36.70;30.47;;;1.30;99.90;;;;;;6211912;23;20446;-74
2022/12/11 15:40:57;;;;;;;33.67;29.00;;;1.30;99.90;;;;;;6212930;23;20475;-74
2022/12/11 15:43:24;;;;;;;35.73;29.37;;;1.30;99.90;;;;;;6212030;23;20440;-75
2022/12/11 15:45:51;;;;;;;34.50;30.87;;;1.30;99.90;;;;;;6212128;23;20411;-74
2022/12/11 15:48:18;;;;;;;34.77;28.93;;;1.30;99.90;;;;;;6212109;23;20431;-73
2022/12/11 15:50:44;;;;;;;32.93;27.80;;;1.30;99.90;;;;;;6212069;23;20430;-73
2022/12/11 15:53:11;;;;;;;34.80;30.00;;;1.30;99.90;;;;;;6212193;23;20408;-74
2022/12/11 15:55:39;;;;;;;36.53;30.83;;;1.20;99.90;;;;;;6211921;23;20409;-75
2022/12/11 15:58:11;;;;;;;39.47;31.47;;;1.20;99.90;;;;;;6212083;23;20414;-74
2022/12/11 16:00:38;;;;;;;40.07;31.70;;;1.10;99.90;;;;;;6211844;23;20412;-74
2022/12/11 16:03:05;;;;;;;37.53;32.50;;;1.10;99.90;;;;;;6213367;23;20416;-74
2022/12/11 16:05:32;;;;;;;43.97;35.07;;;1.10;99.90;;;;;;6212060;23;20455;-73
2022/12/11 16:07:59;;;;;;;39.23;34.03;;;1.10;99.90;;;;;;6211800;23;20405;-74
2022/12/11 16:10:26;;;;;;;38.30;32.40;;;1.00;99.90;;;;;;6212094;23;20411;-74
2022/12/11 16:12:58;;;;;;;37.37;31.67;;;1.10;99.90;;;;;;6211750;23;20429;-73
2022/12/11 16:15:26;;;;;;;38.70;31.80;;;1.00;99.90;;;;;;6211903;23;20390;-72
2022/12/11 16:18:00;;;;;;;38.30;30.77;;;1.00;99.90;;;;;;6211985;23;20482;-73
2022/12/11 16:20:27;;;;;;;35.13;29.27;;;1.00;99.90;;;;;;6212205;23;20395;-74
2022/12/11 16:22:53;;;;;;;39.17;33.47;;;1.00;99.90;;;;;;6212342;23;20412;-74
2022/12/11 16:25:20;;;;;;;41.00;33.53;;;1.00;99.90;;;;;;6211440;23;20441;-73
2022/12/11 16:27:47;;;;;;;41.70;31.37;;;1.00;99.90;;;;;;6211901;23;20408;-74
2022/12/11 16:30:15;;;;;;;37.47;31.70;;;1.00;99.90;;;;;;6211938;23;20414;-73
2022/12/11 16:32:44;;;;;;;38.73;30.43;;;1.00;99.90;;;;;;6211898;23;20413;-71
2022/12/11 16:35:11;;;;;;;36.53;29.40;;;1.00;99.90;;;;;;6211523;23;20696;-72
2022/12/11 16:37:37;;;;;;;40.50;33.83;;;1.00;99.90;;;;;;6211229;23;20457;-73
2022/12/11 16:40:06;;;;;;;40.17;32.60;;;0.90;99.90;;;;;;6211689;23;20405;-75
2022/12/11 16:42:33;;;;;;;39.53;30.60;;;0.90;99.90;;;;;;6211553;23;20790;-74
2022/12/11 16:45:05;;;;;;;36.20;29.30;;;0.80;99.90;;;;;;6211650;23;20788;-75
2022/12/11 16:47:32;;;;;;;40.57;31.80;;;0.80;99.90;;;;;;6211736;23;20474;-75
2022/12/11 16:50:00;;;;;;;41.13;32.50;;;0.80;99.90;;;;;;6211558;23;20893;-74
2022/12/11 16:52:27;;;;;;;38.27;34.07;;;0.70;99.90;;;;;;6211956;23;20754;-74
2022/12/11 16:54:54;;;;;;;41.00;31.73;;;0.60;99.90;;;;;;6212001;23;20403;-73
2022/12/11 16:57:21;;;;;;;35.90;31.53;;;0.60;99.90;;;;;;6211795;23;20779;-73
2022/12/11 16:59:48;;;;;;;40.50;32.90;;;0.60;99.90;;;;;;6211302;23;20421;-73
2022/12/11 17:02:15;;;;;;;40.63;31.93;;;0.40;99.90;;;;;;6211235;23;20476;-72
2022/12/11 17:04:42;;;;;;;40.40;32.10;;;0.30;99.90;;;;;;6211580;23;20905;-72
2022/12/11 17:07:10;;;;;;;33.13;29.70;;;0.20;99.90;;;;;;6211294;23;20472;-74
2022/12/11 17:09:36;;;;;;;45.07;34.10;;;0.20;99.90;;;;;;6211305;23;20415;-73
2022/12/11 17:12:04;;;;;;;45.60;33.10;;;0.10;99.90;;;;;;6210669;23;20451;-75
2022/12/11 17:14:31;;;;;;;37.20;30.63;;;0.20;99.90;;;;;;6210736;23;20428;-72
2022/12/11 17:16:58;;;;;;;39.40;33.83;;;0.30;99.90;;;;;;6211367;23;20409;-73
2022/12/11 17:19:25;;;;;;;48.43;35.87;;;0.30;99.90;;;;;;6211487;23;20404;-74
2022/12/11 17:21:53;;;;;;;47.43;35.43;;;0.20;99.90;;;;;;6211355;23;20408;-73
2022/12/11 17:24:21;;;;;;;43.43;36.27;;;0.20;99.90;;;;;;6210958;23;21014;-73
2022/12/11 17:26:48;;;;;;;49.67;36.07;;;0.20;99.90;;;;;;6211177;23;20439;-72
2022/12/11 17:29:15;;;;;;;41.90;35.13;;;0.10;99.90;;;;;;6211295;23;20412;-73
2022/12/11 17:31:42;;;;;;;42.33;33.60;;;0.10;99.90;;;;;;6211298;23;20408;-73
2022/12/11 17:34:08;;;;;;;46.70;36.93;;;0.10;99.90;;;;;;6211322;23;20405;-73
2022/12/11 17:36:35;;;;;;;51.50;36.37;;;0.10;99.90;;;;;;6211745;23;20427;-79
2022/12/11 17:39:02;;;;;;;52.70;40.93;;;0.10;99.90;;;;;;6211621;23;20405;-79
2022/12/11 17:41:30;;;;;;;50.70;36.80;;;0.10;99.90;;;;;;6211756;23;20416;-78
2022/12/11 17:43:57;;;;;;;44.00;34.50;;;0.10;99.90;;;;;;6211497;23;20952;-76
2022/12/11 17:46:23;;;;;;;42.00;33.90;;;0.00;99.90;;;;;;6211001;23;20414;-77
2022/12/11 17:48:50;;;;;;;42.53;34.77;;;0.00;99.90;;;;;;6211495;23;20408;-77
2022/12/11 17:51:22;;;;;;;48.67;35.63;;;0.00;99.90;;;;;;6211345;23;20411;-78
2022/12/11 17:53:49;;;;;;;49.10;34.77;;;0.00;99.90;;;;;;6211353;23;20798;-78
2022/12/11 17:56:16;;;;;;;46.43;37.50;;;0.10;99.90;;;;;;6211055;23;20470;-78
2022/12/11 17:58:44;;;;;;;55.20;38.70;;;0.20;99.90;;;;;;6211654;23;20406;-78
2022/12/11 18:01:12;;;;;;;45.90;37.20;;;0.30;99.90;;;;;;6211469;23;20408;-79
2022/12/11 18:03:39;;;;;;;47.20;35.40;;;0.40;99.90;;;;;;6211789;23;20476;-77
2022/12/11 18:06:08;;;;;;;47.53;37.07;;;0.50;99.90;;;;;;6211394;23;20486;-78
2022/12/11 18:08:35;;;;;;;40.13;32.97;;;0.50;99.90;;;;;;6210933;23;20732;-76
2022/12/11 18:11:07;;;;;;;42.50;33.33;;;0.60;99.90;;;;;;6211229;23;20406;-78
2022/12/11 18:13:34;;;;;;;39.03;33.30;;;0.70;99.90;;;;;;6210618;23;21022;-78
2022/12/11 18:16:05;;;;;;;44.77;35.00;;;0.70;99.90;;;;;;6211213;23;20408;-81
2022/12/11 18:18:32;;;;;;;43.03;33.73;;;0.70;99.90;;;;;;6211215;23;20473;-79
2022/12/11 18:21:00;;;;;;;44.70;35.57;;;0.80;99.90;;;;;;6211483;23;20414;-79
2022/12/11 18:23:27;;;;;;;42.07;33.50;;;0.90;99.90;;;;;;6212936;23;20409;-79
2022/12/11 18:25:54;;;;;;;43.63;34.17;;;0.80;99.90;;;;;;6213081;23;20446;-78
2022/12/11 18:28:21;;;;;;;39.47;32.80;;;0.80;99.90;;;;;;6210828;23;20892;-77
2022/12/11 18:30:48;;;;;;;40.23;33.60;;;0.80;99.90;;;;;;6212871;23;20404;-79
2022/12/11 18:33:16;;;;;;;44.40;32.17;;;0.70;99.90;;;;;;6213406;23;20740;-79
2022/12/11 18:35:43;;;;;;;42.53;32.23;;;0.70;99.90;;;;;;6213386;23;20407;-78
2022/12/11 18:38:09;;;;;;;42.83;33.13;;;0.60;99.90;;;;;;6213538;23;20427;-79
2022/12/11 18:40:37;;;;;;;44.43;31.30;;;0.30;99.90;;;;;;6212686;23;20419;-78
2022/12/11 18:43:04;;;;;;;42.63;32.63;;;0.20;99.90;;;;;;6219729;23;20415;-80
2022/12/11 18:45:31;;;;;;;48.30;36.13;;;0.00;99.90;;;;;;6227846;23;20436;-78
2022/12/11 18:47:58;;;;;;;48.67;35.60;;;-0.10;99.90;;;;;;6213740;23;20409;-78
2022/12/11 18:50:26;;;;;;;46.37;37.03;;;-0.20;99.90;;;;;;6213798;23;20409;-80
2022/12/11 18:52:54;;;;;;;38.50;34.27;;;-0.30;99.90;;;;;;6213800;23;20743;-79
2022/12/11 18:55:21;;;;;;;43.10;34.50;;;-0.30;99.90;;;;;;6213257;23;20403;-78
2022/12/11 18:57:48;;;;;;;44.47;35.03;;;-0.40;99.90;;;;;;6212611;23;20639;-80
2022/12/11 19:00:16;;;;;;;49.17;34.97;;;-0.50;99.90;;;;;;6214078;23;20415;-79
2022/12/11 19:02:43;;;;;;;38.67;33.97;;;-0.60;99.90;;;;;;6215655;23;20411;-78